sensor_id;sensor_type;location;lat;lon;timestamp;P1;durP1;ratioP1;P2;durP2;ratioP2
49029;SDS011;43337;52.070;4.508;2024-03-08T00:00:31;38.63;;;13.20;;
49029;SDS011;43337;52.070;4.508;2024-03-08T00:02:58;35.22;;;14.32;;
49029;SDS011;43337;52.070;4.508;2024-03-08T00:05:23;33.50;;;13.25;;
49029;SDS011;43337;52.070;4.508;2024-03-08T00:07:49;29.75;;;12.30;;
49029;SDS011;43337;52.070;4.508;2024-03-08T00:10:14;33.67;;;12.57;;
49029;SDS011;43337;52.070;4.508;2024-03-08T00:12:40;36.42;;;13.75;;
49029;SDS011;43337;52.070;4.508;2024-03-08T00:15:07;39.10;;;14.93;;
49029;SDS011;43337;52.070;4.508;2024-03-08T00:17:34;31.13;;;13.50;;
49029;SDS011;43337;52.070;4.508;2024-03-08T00:20:01;33.08;;;12.55;;
49029;SDS011;43337;52.070;4.508;2024-03-08T00:22:28;35.30;;;13.02;;
49029;SDS011;43337;52.070;4.508;2024-03-08T00:24:55;35.72;;;13.90;;
49029;SDS011;43337;52.070;4.508;2024-03-08T00:27:21;36.72;;;15.23;;
49029;SDS011;43337;52.070;4.508;2024-03-08T00:29:46;42.20;;;14.38;;
49029;SDS011;43337;52.070;4.508;2024-03-08T00:32:12;31.27;;;14.50;;
49029;SDS011;43337;52.070;4.508;2024-03-08T00:34:38;37.33;;;12.07;;
49029;SDS011;43337;52.070;4.508;2024-03-08T00:37:03;37.22;;;11.95;;
49029;SDS011;43337;52.070;4.508;2024-03-08T00:39:29;33.60;;;13.02;;
49029;SDS011;43337;52.070;4.508;2024-03-08T00:41:55;44.08;;;14.23;;
49029;SDS011;43337;52.070;4.508;2024-03-08T00:44:20;38.67;;;15.32;;
49029;SDS011;43337;52.070;4.508;2024-03-08T00:46:45;38.17;;;14.43;;
49029;SDS011;43337;52.070;4.508;2024-03-08T00:49:12;34.55;;;13.52;;
49029;SDS011;43337;52.070;4.508;2024-03-08T00:51:38;37.38;;;14.07;;
49029;SDS011;43337;52.070;4.508;2024-03-08T00:54:03;36.08;;;13.63;;
49029;SDS011;43337;52.070;4.508;2024-03-08T00:56:29;31.67;;;13.55;;
49029;SDS011;43337;52.070;4.508;2024-03-08T00:58:54;33.58;;;13.40;;
49029;SDS011;43337;52.070;4.508;2024-03-08T01:01:20;36.85;;;14.35;;
49029;SDS011;43337;52.070;4.508;2024-03-08T01:03:45;36.58;;;13.65;;
49029;SDS011;43337;52.070;4.508;2024-03-08T01:06:11;35.15;;;14.35;;
49029;SDS011;43337;52.070;4.508;2024-03-08T01:08:36;34.60;;;12.90;;
49029;SDS011;43337;52.070;4.508;2024-03-08T01:11:03;37.95;;;14.60;;
49029;SDS011;43337;52.070;4.508;2024-03-08T01:13:30;34.00;;;13.80;;
49029;SDS011;43337;52.070;4.508;2024-03-08T01:15:55;33.80;;;14.25;;
49029;SDS011;43337;52.070;4.508;2024-03-08T01:18:21;34.47;;;13.02;;
49029;SDS011;43337;52.070;4.508;2024-03-08T01:20:46;33.55;;;14.38;;
49029;SDS011;43337;52.070;4.508;2024-03-08T01:23:12;34.65;;;13.48;;
49029;SDS011;43337;52.070;4.508;2024-03-08T01:25:37;38.95;;;14.52;;
49029;SDS011;43337;52.070;4.508;2024-03-08T01:28:03;37.65;;;15.10;;
49029;SDS011;43337;52.070;4.508;2024-03-08T01:30:29;36.83;;;14.88;;
49029;SDS011;43337;52.070;4.508;2024-03-08T01:32:54;32.55;;;13.82;;
49029;SDS011;43337;52.070;4.508;2024-03-08T01:35:20;38.83;;;14.80;;
49029;SDS011;43337;52.070;4.508;2024-03-08T01:37:47;38.53;;;14.85;;
49029;SDS011;43337;52.070;4.508;2024-03-08T01:40:14;35.45;;;13.85;;
49029;SDS011;43337;52.070;4.508;2024-03-08T01:42:40;33.17;;;13.93;;
49029;SDS011;43337;52.070;4.508;2024-03-08T01:45:06;37.28;;;14.30;;
49029;SDS011;43337;52.070;4.508;2024-03-08T01:47:32;35.67;;;13.43;;
49029;SDS011;43337;52.070;4.508;2024-03-08T01:49:59;38.38;;;14.98;;
49029;SDS011;43337;52.070;4.508;2024-03-08T01:52:31;36.38;;;13.70;;
49029;SDS011;43337;52.070;4.508;2024-03-08T01:55:01;39.78;;;14.77;;
49029;SDS011;43337;52.070;4.508;2024-03-08T01:57:28;36.33;;;14.35;;
49029;SDS011;43337;52.070;4.508;2024-03-08T01:59:58;39.72;;;15.70;;
49029;SDS011;43337;52.070;4.508;2024-03-08T02:02:29;36.40;;;14.70;;
49029;SDS011;43337;52.070;4.508;2024-03-08T02:04:57;36.63;;;13.20;;
49029;SDS011;43337;52.070;4.508;2024-03-08T02:07:22;33.80;;;14.15;;
49029;SDS011;43337;52.070;4.508;2024-03-08T02:09:48;34.17;;;13.57;;
49029;SDS011;43337;52.070;4.508;2024-03-08T02:12:13;32.92;;;14.48;;
49029;SDS011;43337;52.070;4.508;2024-03-08T02:14:39;34.13;;;15.43;;
49029;SDS011;43337;52.070;4.508;2024-03-08T02:17:05;35.55;;;14.32;;
49029;SDS011;43337;52.070;4.508;2024-03-08T02:19:30;36.50;;;14.88;;
49029;SDS011;43337;52.070;4.508;2024-03-08T02:21:55;36.53;;;13.95;;
49029;SDS011;43337;52.070;4.508;2024-03-08T02:24:21;37.20;;;14.02;;
49029;SDS011;43337;52.070;4.508;2024-03-08T02:26:48;38.15;;;14.13;;
49029;SDS011;43337;52.070;4.508;2024-03-08T02:29:14;35.92;;;14.60;;
49029;SDS011;43337;52.070;4.508;2024-03-08T02:31:39;32.90;;;12.55;;
49029;SDS011;43337;52.070;4.508;2024-03-08T02:34:05;34.38;;;13.80;;
49029;SDS011;43337;52.070;4.508;2024-03-08T02:36:30;37.67;;;13.18;;
49029;SDS011;43337;52.070;4.508;2024-03-08T02:38:59;41.25;;;14.68;;
49029;SDS011;43337;52.070;4.508;2024-03-08T02:41:26;36.17;;;14.00;;
49029;SDS011;43337;52.070;4.508;2024-03-08T02:43:52;35.72;;;13.15;;
49029;SDS011;43337;52.070;4.508;2024-03-08T02:46:17;37.30;;;14.50;;
49029;SDS011;43337;52.070;4.508;2024-03-08T02:48:43;34.70;;;14.18;;
49029;SDS011;43337;52.070;4.508;2024-03-08T02:51:08;39.05;;;15.35;;
49029;SDS011;43337;52.070;4.508;2024-03-08T02:53:35;31.95;;;14.77;;
49029;SDS011;43337;52.070;4.508;2024-03-08T02:56:01;33.45;;;14.63;;
49029;SDS011;43337;52.070;4.508;2024-03-08T02:58:26;38.45;;;14.75;;
49029;SDS011;43337;52.070;4.508;2024-03-08T03:00:52;32.90;;;14.43;;
49029;SDS011;43337;52.070;4.508;2024-03-08T03:03:17;38.40;;;14.48;;
49029;SDS011;43337;52.070;4.508;2024-03-08T03:05:42;29.90;;;13.13;;
49029;SDS011;43337;52.070;4.508;2024-03-08T03:08:08;36.85;;;13.48;;
49029;SDS011;43337;52.070;4.508;2024-03-08T03:10:35;36.20;;;13.93;;
49029;SDS011;43337;52.070;4.508;2024-03-08T03:13:01;39.72;;;15.50;;
49029;SDS011;43337;52.070;4.508;2024-03-08T03:15:26;32.60;;;13.75;;
49029;SDS011;43337;52.070;4.508;2024-03-08T03:17:51;35.58;;;13.73;;
49029;SDS011;43337;52.070;4.508;2024-03-08T03:20:17;38.10;;;15.18;;
49029;SDS011;43337;52.070;4.508;2024-03-08T03:22:48;38.08;;;14.75;;
49029;SDS011;43337;52.070;4.508;2024-03-08T03:25:20;38.22;;;14.73;;
49029;SDS011;43337;52.070;4.508;2024-03-08T03:27:50;37.88;;;14.57;;
49029;SDS011;43337;52.070;4.508;2024-03-08T03:30:25;38.45;;;15.55;;
49029;SDS011;43337;52.070;4.508;2024-03-08T03:32:58;38.08;;;14.77;;
49029;SDS011;43337;52.070;4.508;2024-03-08T03:35:25;32.95;;;14.73;;
49029;SDS011;43337;52.070;4.508;2024-03-08T03:37:51;41.22;;;14.95;;
49029;SDS011;43337;52.070;4.508;2024-03-08T03:40:27;42.50;;;15.35;;
49029;SDS011;43337;52.070;4.508;2024-03-08T03:42:53;36.45;;;15.30;;
49029;SDS011;43337;52.070;4.508;2024-03-08T03:45:19;39.05;;;14.57;;
49029;SDS011;43337;52.070;4.508;2024-03-08T03:47:45;37.53;;;14.57;;
49029;SDS011;43337;52.070;4.508;2024-03-08T03:50:10;37.85;;;13.77;;
49029;SDS011;43337;52.070;4.508;2024-03-08T03:52:36;37.28;;;15.32;;
49029;SDS011;43337;52.070;4.508;2024-03-08T03:55:01;39.10;;;13.77;;
49029;SDS011;43337;52.070;4.508;2024-03-08T03:57:29;41.92;;;14.93;;
49029;SDS011;43337;52.070;4.508;2024-03-08T03:59:55;36.58;;;14.95;;
49029;SDS011;43337;52.070;4.508;2024-03-08T04:02:20;36.03;;;14.77;;
49029;SDS011;43337;52.070;4.508;2024-03-08T04:04:46;33.17;;;14.20;;
49029;SDS011;43337;52.070;4.508;2024-03-08T04:07:12;37.97;;;15.05;;
49029;SDS011;43337;52.070;4.508;2024-03-08T04:09:38;35.97;;;15.15;;
49029;SDS011;43337;52.070;4.508;2024-03-08T04:12:03;38.78;;;14.90;;
49029;SDS011;43337;52.070;4.508;2024-03-08T04:14:29;36.17;;;14.00;;
49029;SDS011;43337;52.070;4.508;2024-03-08T04:16:55;33.05;;;13.73;;
49029;SDS011;43337;52.070;4.508;2024-03-08T04:19:20;34.95;;;14.60;;
49029;SDS011;43337;52.070;4.508;2024-03-08T04:21:45;33.22;;;14.40;;
49029;SDS011;43337;52.070;4.508;2024-03-08T04:24:12;33.65;;;14.93;;
49029;SDS011;43337;52.070;4.508;2024-03-08T04:26:37;37.13;;;14.10;;
49029;SDS011;43337;52.070;4.508;2024-03-08T04:29:03;37.30;;;13.38;;
49029;SDS011;43337;52.070;4.508;2024-03-08T04:31:28;32.17;;;13.38;;
49029;SDS011;43337;52.070;4.508;2024-03-08T04:33:56;36.28;;;14.55;;
49029;SDS011;43337;52.070;4.508;2024-03-08T04:36:21;42.50;;;17.15;;
49029;SDS011;43337;52.070;4.508;2024-03-08T04:38:47;38.80;;;15.02;;
49029;SDS011;43337;52.070;4.508;2024-03-08T04:41:12;34.15;;;14.23;;
49029;SDS011;43337;52.070;4.508;2024-03-08T04:43:37;37.00;;;14.88;;
49029;SDS011;43337;52.070;4.508;2024-03-08T04:46:04;39.05;;;15.48;;
49029;SDS011;43337;52.070;4.508;2024-03-08T04:48:30;32.72;;;13.93;;
49029;SDS011;43337;52.070;4.508;2024-03-08T04:50:55;33.47;;;14.90;;
49029;SDS011;43337;52.070;4.508;2024-03-08T04:53:21;32.63;;;14.52;;
49029;SDS011;43337;52.070;4.508;2024-03-08T04:55:46;38.53;;;15.27;;
49029;SDS011;43337;52.070;4.508;2024-03-08T04:58:12;39.13;;;15.23;;
49029;SDS011;43337;52.070;4.508;2024-03-08T05:00:37;33.58;;;14.00;;
49029;SDS011;43337;52.070;4.508;2024-03-08T05:03:03;38.55;;;14.23;;
49029;SDS011;43337;52.070;4.508;2024-03-08T05:05:29;39.40;;;14.50;;
49029;SDS011;43337;52.070;4.508;2024-03-08T05:07:55;38.15;;;15.65;;
49029;SDS011;43337;52.070;4.508;2024-03-08T05:10:21;33.35;;;14.55;;
49029;SDS011;43337;52.070;4.508;2024-03-08T05:12:46;33.28;;;13.40;;
49029;SDS011;43337;52.070;4.508;2024-03-08T05:15:12;33.90;;;14.20;;
49029;SDS011;43337;52.070;4.508;2024-03-08T05:17:37;37.53;;;15.02;;
49029;SDS011;43337;52.070;4.508;2024-03-08T05:20:05;34.08;;;14.55;;
49029;SDS011;43337;52.070;4.508;2024-03-08T05:22:33;34.97;;;14.90;;
49029;SDS011;43337;52.070;4.508;2024-03-08T05:24:58;32.53;;;13.60;;
49029;SDS011;43337;52.070;4.508;2024-03-08T05:27:24;35.83;;;16.00;;
49029;SDS011;43337;52.070;4.508;2024-03-08T05:29:49;36.10;;;14.98;;
49029;SDS011;43337;52.070;4.508;2024-03-08T05:32:14;33.97;;;14.07;;
49029;SDS011;43337;52.070;4.508;2024-03-08T05:34:40;41.22;;;15.27;;
49029;SDS011;43337;52.070;4.508;2024-03-08T05:37:05;35.28;;;14.80;;
49029;SDS011;43337;52.070;4.508;2024-03-08T05:39:32;34.97;;;14.45;;
49029;SDS011;43337;52.070;4.508;2024-03-08T05:41:57;36.20;;;15.10;;
49029;SDS011;43337;52.070;4.508;2024-03-08T05:44:22;38.22;;;15.05;;
49029;SDS011;43337;52.070;4.508;2024-03-08T05:46:48;34.92;;;13.98;;
49029;SDS011;43337;52.070;4.508;2024-03-08T05:49:13;36.03;;;14.60;;
49029;SDS011;43337;52.070;4.508;2024-03-08T05:51:39;35.20;;;15.80;;
49029;SDS011;43337;52.070;4.508;2024-03-08T05:54:09;37.00;;;15.23;;
49029;SDS011;43337;52.070;4.508;2024-03-08T05:56:36;30.17;;;13.07;;
49029;SDS011;43337;52.070;4.508;2024-03-08T05:59:03;35.70;;;15.55;;
49029;SDS011;43337;52.070;4.508;2024-03-08T06:01:28;40.00;;;15.43;;
49029;SDS011;43337;52.070;4.508;2024-03-08T06:03:54;33.67;;;15.05;;
49029;SDS011;43337;52.070;4.508;2024-03-08T06:06:23;33.30;;;14.63;;
49029;SDS011;43337;52.070;4.508;2024-03-08T06:08:50;37.13;;;15.55;;
49029;SDS011;43337;52.070;4.508;2024-03-08T06:11:16;39.40;;;15.80;;
49029;SDS011;43337;52.070;4.508;2024-03-08T06:13:42;38.33;;;16.42;;
49029;SDS011;43337;52.070;4.508;2024-03-08T06:16:08;36.38;;;15.15;;
49029;SDS011;43337;52.070;4.508;2024-03-08T06:18:34;32.78;;;14.35;;
49029;SDS011;43337;52.070;4.508;2024-03-08T06:21:04;38.95;;;15.48;;
49029;SDS011;43337;52.070;4.508;2024-03-08T06:23:31;42.42;;;16.33;;
49029;SDS011;43337;52.070;4.508;2024-03-08T06:26:03;41.15;;;16.30;;
49029;SDS011;43337;52.070;4.508;2024-03-08T06:28:34;37.92;;;14.50;;
49029;SDS011;43337;52.070;4.508;2024-03-08T06:31:01;35.05;;;15.13;;
49029;SDS011;43337;52.070;4.508;2024-03-08T06:33:27;33.92;;;15.25;;
49029;SDS011;43337;52.070;4.508;2024-03-08T06:35:53;36.78;;;15.23;;
49029;SDS011;43337;52.070;4.508;2024-03-08T06:38:23;38.38;;;15.85;;
49029;SDS011;43337;52.070;4.508;2024-03-08T06:40:51;41.80;;;16.10;;
49029;SDS011;43337;52.070;4.508;2024-03-08T06:43:17;33.35;;;15.05;;
49029;SDS011;43337;52.070;4.508;2024-03-08T06:45:43;36.25;;;14.88;;
49029;SDS011;43337;52.070;4.508;2024-03-08T06:48:17;35.95;;;16.27;;
49029;SDS011;43337;52.070;4.508;2024-03-08T06:50:46;39.92;;;15.88;;
49029;SDS011;43337;52.070;4.508;2024-03-08T06:53:12;35.80;;;14.70;;
49029;SDS011;43337;52.070;4.508;2024-03-08T06:55:38;38.00;;;15.40;;
49029;SDS011;43337;52.070;4.508;2024-03-08T06:58:04;38.17;;;15.32;;
49029;SDS011;43337;52.070;4.508;2024-03-08T07:00:29;38.63;;;14.48;;
49029;SDS011;43337;52.070;4.508;2024-03-08T07:02:55;34.13;;;15.02;;
49029;SDS011;43337;52.070;4.508;2024-03-08T07:05:22;41.28;;;16.73;;
49029;SDS011;43337;52.070;4.508;2024-03-08T07:07:49;38.10;;;15.60;;
49029;SDS011;43337;52.070;4.508;2024-03-08T07:10:16;39.30;;;15.15;;
49029;SDS011;43337;52.070;4.508;2024-03-08T07:12:41;34.28;;;16.33;;
49029;SDS011;43337;52.070;4.508;2024-03-08T07:15:07;38.28;;;16.27;;
49029;SDS011;43337;52.070;4.508;2024-03-08T07:17:38;34.92;;;15.40;;
49029;SDS011;43337;52.070;4.508;2024-03-08T07:20:04;37.10;;;14.75;;
49029;SDS011;43337;52.070;4.508;2024-03-08T07:22:36;35.97;;;15.15;;
49029;SDS011;43337;52.070;4.508;2024-03-08T07:25:02;32.40;;;13.10;;
49029;SDS011;43337;52.070;4.508;2024-03-08T07:27:46;28.77;;;12.77;;
49029;SDS011;43337;52.070;4.508;2024-03-08T07:30:12;32.10;;;13.40;;
49029;SDS011;43337;52.070;4.508;2024-03-08T07:32:38;39.78;;;16.02;;
49029;SDS011;43337;52.070;4.508;2024-03-08T07:35:03;32.10;;;14.80;;
49029;SDS011;43337;52.070;4.508;2024-03-08T07:37:29;36.65;;;15.00;;
49029;SDS011;43337;52.070;4.508;2024-03-08T07:39:56;32.72;;;14.80;;
49029;SDS011;43337;52.070;4.508;2024-03-08T07:42:23;34.03;;;15.07;;
49029;SDS011;43337;52.070;4.508;2024-03-08T07:44:48;37.05;;;15.82;;
49029;SDS011;43337;52.070;4.508;2024-03-08T07:47:15;37.38;;;14.85;;
49029;SDS011;43337;52.070;4.508;2024-03-08T07:49:42;29.63;;;13.57;;
49029;SDS011;43337;52.070;4.508;2024-03-08T07:52:09;22.55;;;10.02;;
49029;SDS011;43337;52.070;4.508;2024-03-08T07:54:34;33.97;;;15.40;;
49029;SDS011;43337;52.070;4.508;2024-03-08T07:57:00;32.92;;;13.27;;
49029;SDS011;43337;52.070;4.508;2024-03-08T07:59:27;30.15;;;12.60;;
49029;SDS011;43337;52.070;4.508;2024-03-08T08:01:53;32.78;;;14.73;;
49029;SDS011;43337;52.070;4.508;2024-03-08T08:04:18;30.33;;;14.38;;
49029;SDS011;43337;52.070;4.508;2024-03-08T08:06:49;33.05;;;14.38;;
49029;SDS011;43337;52.070;4.508;2024-03-08T08:09:16;40.65;;;16.13;;
49029;SDS011;43337;52.070;4.508;2024-03-08T08:11:47;35.03;;;15.10;;
49029;SDS011;43337;52.070;4.508;2024-03-08T08:14:12;33.35;;;14.25;;
49029;SDS011;43337;52.070;4.508;2024-03-08T08:16:38;34.10;;;15.05;;
49029;SDS011;43337;52.070;4.508;2024-03-08T08:19:06;32.97;;;14.70;;
49029;SDS011;43337;52.070;4.508;2024-03-08T08:21:35;36.97;;;16.55;;
49029;SDS011;43337;52.070;4.508;2024-03-08T08:24:04;28.90;;;13.98;;
49029;SDS011;43337;52.070;4.508;2024-03-08T08:26:29;32.85;;;14.55;;
49029;SDS011;43337;52.070;4.508;2024-03-08T08:28:55;33.97;;;14.32;;
49029;SDS011;43337;52.070;4.508;2024-03-08T08:31:20;30.42;;;13.68;;
49029;SDS011;43337;52.070;4.508;2024-03-08T08:33:47;33.85;;;15.25;;
49029;SDS011;43337;52.070;4.508;2024-03-08T08:36:25;32.67;;;13.02;;
49029;SDS011;43337;52.070;4.508;2024-03-08T08:38:50;33.67;;;14.20;;
49029;SDS011;43337;52.070;4.508;2024-03-08T08:41:19;33.78;;;13.77;;
49029;SDS011;43337;52.070;4.508;2024-03-08T08:43:47;28.42;;;13.38;;
49029;SDS011;43337;52.070;4.508;2024-03-08T08:46:16;29.60;;;13.13;;
49029;SDS011;43337;52.070;4.508;2024-03-08T08:48:42;33.78;;;15.23;;
49029;SDS011;43337;52.070;4.508;2024-03-08T08:51:10;33.10;;;14.52;;
49029;SDS011;43337;52.070;4.508;2024-03-08T08:53:40;28.35;;;12.90;;
49029;SDS011;43337;52.070;4.508;2024-03-08T08:56:10;30.58;;;14.23;;
49029;SDS011;43337;52.070;4.508;2024-03-08T08:58:38;29.33;;;13.50;;
49029;SDS011;43337;52.070;4.508;2024-03-08T09:01:07;30.70;;;14.10;;
49029;SDS011;43337;52.070;4.508;2024-03-08T09:03:33;31.58;;;14.57;;
49029;SDS011;43337;52.070;4.508;2024-03-08T09:06:00;27.98;;;11.95;;
49029;SDS011;43337;52.070;4.508;2024-03-08T09:08:27;28.38;;;13.75;;
49029;SDS011;43337;52.070;4.508;2024-03-08T09:10:53;31.30;;;14.25;;
49029;SDS011;43337;52.070;4.508;2024-03-08T09:13:19;30.60;;;14.35;;
49029;SDS011;43337;52.070;4.508;2024-03-08T09:15:44;32.20;;;14.82;;
49029;SDS011;43337;52.070;4.508;2024-03-08T09:18:10;29.48;;;13.52;;
49029;SDS011;43337;52.070;4.508;2024-03-08T09:20:35;35.42;;;15.82;;
49029;SDS011;43337;52.070;4.508;2024-03-08T09:23:01;31.52;;;14.40;;
49029;SDS011;43337;52.070;4.508;2024-03-08T09:25:28;30.35;;;13.43;;
49029;SDS011;43337;52.070;4.508;2024-03-08T09:27:54;37.05;;;15.57;;
49029;SDS011;43337;52.070;4.508;2024-03-08T09:30:19;30.27;;;14.43;;
49029;SDS011;43337;52.070;4.508;2024-03-08T09:32:46;33.45;;;15.82;;
49029;SDS011;43337;52.070;4.508;2024-03-08T09:35:12;29.85;;;12.82;;
49029;SDS011;43337;52.070;4.508;2024-03-08T09:37:37;32.25;;;15.23;;
49029;SDS011;43337;52.070;4.508;2024-03-08T09:40:03;30.33;;;14.50;;
49029;SDS011;43337;52.070;4.508;2024-03-08T09:42:34;29.42;;;12.70;;
49029;SDS011;43337;52.070;4.508;2024-03-08T09:45:07;33.00;;;13.98;;
49029;SDS011;43337;52.070;4.508;2024-03-08T09:47:35;33.92;;;13.95;;
49029;SDS011;43337;52.070;4.508;2024-03-08T09:50:05;30.55;;;13.30;;
49029;SDS011;43337;52.070;4.508;2024-03-08T09:52:34;24.63;;;12.07;;
49029;SDS011;43337;52.070;4.508;2024-03-08T09:55:02;29.77;;;13.20;;
49029;SDS011;43337;52.070;4.508;2024-03-08T09:57:31;28.88;;;13.23;;
49029;SDS011;43337;52.070;4.508;2024-03-08T09:59:58;29.55;;;13.65;;
49029;SDS011;43337;52.070;4.508;2024-03-08T10:02:24;30.52;;;14.23;;
49029;SDS011;43337;52.070;4.508;2024-03-08T10:04:50;29.35;;;14.05;;
49029;SDS011;43337;52.070;4.508;2024-03-08T10:07:18;27.33;;;13.23;;
49029;SDS011;43337;52.070;4.508;2024-03-08T10:09:43;32.25;;;14.75;;
49029;SDS011;43337;52.070;4.508;2024-03-08T10:12:15;30.00;;;13.15;;
49029;SDS011;43337;52.070;4.508;2024-03-08T10:14:41;29.83;;;13.15;;
49029;SDS011;43337;52.070;4.508;2024-03-08T10:17:07;25.00;;;11.98;;
49029;SDS011;43337;52.070;4.508;2024-03-08T10:19:33;26.83;;;12.68;;
49029;SDS011;43337;52.070;4.508;2024-03-08T10:21:59;30.35;;;12.82;;
49029;SDS011;43337;52.070;4.508;2024-03-08T10:24:24;21.25;;;10.25;;
49029;SDS011;43337;52.070;4.508;2024-03-08T10:26:55;25.17;;;11.90;;
49029;SDS011;43337;52.070;4.508;2024-03-08T10:29:24;25.60;;;12.00;;
49029;SDS011;43337;52.070;4.508;2024-03-08T10:31:50;27.13;;;12.40;;
49029;SDS011;43337;52.070;4.508;2024-03-08T10:34:16;27.95;;;13.18;;
49029;SDS011;43337;52.070;4.508;2024-03-08T10:36:42;21.98;;;11.52;;
49029;SDS011;43337;52.070;4.508;2024-03-08T10:39:11;24.10;;;12.63;;
49029;SDS011;43337;52.070;4.508;2024-03-08T10:41:46;27.10;;;12.43;;
49029;SDS011;43337;52.070;4.508;2024-03-08T10:47:00;27.77;;;12.30;;
49029;SDS011;43337;52.070;4.508;2024-03-08T10:50:01;27.02;;;12.23;;
49029;SDS011;43337;52.070;4.508;2024-03-08T10:52:29;27.60;;;11.73;;
49029;SDS011;43337;52.070;4.508;2024-03-08T10:54:54;23.90;;;12.02;;
49029;SDS011;43337;52.070;4.508;2024-03-08T10:57:22;24.75;;;11.77;;
49029;SDS011;43337;52.070;4.508;2024-03-08T10:59:49;27.75;;;12.88;;
49029;SDS011;43337;52.070;4.508;2024-03-08T11:02:16;26.42;;;11.90;;
49029;SDS011;43337;52.070;4.508;2024-03-08T11:04:48;25.55;;;12.50;;
49029;SDS011;43337;52.070;4.508;2024-03-08T11:07:15;28.30;;;12.65;;
49029;SDS011;43337;52.070;4.508;2024-03-08T11:09:45;25.45;;;11.75;;
49029;SDS011;43337;52.070;4.508;2024-03-08T11:12:27;30.60;;;12.52;;
49029;SDS011;43337;52.070;4.508;2024-03-08T11:14:54;24.73;;;11.13;;
49029;SDS011;43337;52.070;4.508;2024-03-08T11:17:25;25.05;;;12.15;;
49029;SDS011;43337;52.070;4.508;2024-03-08T11:20:11;24.65;;;11.77;;
49029;SDS011;43337;52.070;4.508;2024-03-08T11:22:41;20.65;;;10.45;;
49029;SDS011;43337;52.070;4.508;2024-03-08T11:25:15;21.13;;;11.00;;
49029;SDS011;43337;52.070;4.508;2024-03-08T11:33:12;20.63;;;9.32;;
49029;SDS011;43337;52.070;4.508;2024-03-08T11:35:38;21.40;;;9.60;;
49029;SDS011;43337;52.070;4.508;2024-03-08T11:38:04;18.98;;;8.35;;
49029;SDS011;43337;52.070;4.508;2024-03-08T11:40:29;19.15;;;10.02;;
49029;SDS011;43337;52.070;4.508;2024-03-08T11:42:55;18.63;;;9.43;;
49029;SDS011;43337;52.070;4.508;2024-03-08T11:45:20;20.55;;;9.93;;
49029;SDS011;43337;52.070;4.508;2024-03-08T11:47:46;19.00;;;8.98;;
49029;SDS011;43337;52.070;4.508;2024-03-08T11:50:13;22.00;;;9.45;;
49029;SDS011;43337;52.070;4.508;2024-03-08T11:52:39;19.42;;;10.10;;
49029;SDS011;43337;52.070;4.508;2024-03-08T11:55:05;18.90;;;9.98;;
49029;SDS011;43337;52.070;4.508;2024-03-08T11:57:31;21.23;;;10.35;;
49029;SDS011;43337;52.070;4.508;2024-03-08T11:59:57;20.05;;;9.55;;
49029;SDS011;43337;52.070;4.508;2024-03-08T12:02:23;19.08;;;10.63;;
49029;SDS011;43337;52.070;4.508;2024-03-08T12:04:56;18.17;;;9.35;;
49029;SDS011;43337;52.070;4.508;2024-03-08T12:07:22;21.52;;;9.38;;
49029;SDS011;43337;52.070;4.508;2024-03-08T12:12:43;20.55;;;8.70;;
49029;SDS011;43337;52.070;4.508;2024-03-08T12:15:12;21.00;;;10.00;;
49029;SDS011;43337;52.070;4.508;2024-03-08T12:17:38;20.13;;;9.32;;
49029;SDS011;43337;52.070;4.508;2024-03-08T12:22:43;17.98;;;9.43;;
49029;SDS011;43337;52.070;4.508;2024-03-08T12:25:12;22.13;;;10.32;;
49029;SDS011;43337;52.070;4.508;2024-03-08T12:27:39;20.88;;;10.05;;
49029;SDS011;43337;52.070;4.508;2024-03-08T12:30:21;20.75;;;10.10;;
49029;SDS011;43337;52.070;4.508;2024-03-08T12:32:58;21.65;;;11.15;;
49029;SDS011;43337;52.070;4.508;2024-03-08T12:35:26;22.35;;;10.05;;
49029;SDS011;43337;52.070;4.508;2024-03-08T12:37:54;20.35;;;9.10;;
49029;SDS011;43337;52.070;4.508;2024-03-08T12:40:30;21.02;;;11.02;;
49029;SDS011;43337;52.070;4.508;2024-03-08T12:42:57;21.60;;;9.38;;
49029;SDS011;43337;52.070;4.508;2024-03-08T12:45:23;18.40;;;9.25;;
49029;SDS011;43337;52.070;4.508;2024-03-08T12:47:50;19.73;;;10.13;;
49029;SDS011;43337;52.070;4.508;2024-03-08T12:50:19;22.13;;;11.20;;
49029;SDS011;43337;52.070;4.508;2024-03-08T12:52:49;19.40;;;10.40;;
49029;SDS011;43337;52.070;4.508;2024-03-08T12:55:15;25.08;;;10.55;;
49029;SDS011;43337;52.070;4.508;2024-03-08T12:57:43;20.48;;;9.88;;
49029;SDS011;43337;52.070;4.508;2024-03-08T13:00:09;20.92;;;9.15;;
49029;SDS011;43337;52.070;4.508;2024-03-08T13:02:38;23.15;;;11.20;;
49029;SDS011;43337;52.070;4.508;2024-03-08T13:05:04;20.38;;;9.57;;
49029;SDS011;43337;52.070;4.508;2024-03-08T13:07:31;23.77;;;10.90;;
49029;SDS011;43337;52.070;4.508;2024-03-08T13:09:57;22.05;;;10.15;;
49029;SDS011;43337;52.070;4.508;2024-03-08T13:12:24;22.13;;;11.40;;
49029;SDS011;43337;52.070;4.508;2024-03-08T13:14:50;22.40;;;10.82;;
49029;SDS011;43337;52.070;4.508;2024-03-08T13:17:16;25.33;;;10.88;;
49029;SDS011;43337;52.070;4.508;2024-03-08T13:19:43;22.77;;;11.90;;
49029;SDS011;43337;52.070;4.508;2024-03-08T13:22:09;20.60;;;10.82;;
49029;SDS011;43337;52.070;4.508;2024-03-08T13:24:38;23.10;;;10.68;;
49029;SDS011;43337;52.070;4.508;2024-03-08T13:27:05;21.15;;;10.15;;
49029;SDS011;43337;52.070;4.508;2024-03-08T13:29:41;24.98;;;11.15;;
49029;SDS011;43337;52.070;4.508;2024-03-08T13:32:08;24.15;;;11.35;;
49029;SDS011;43337;52.070;4.508;2024-03-08T13:34:36;24.15;;;11.70;;
49029;SDS011;43337;52.070;4.508;2024-03-08T13:37:02;24.95;;;11.70;;
49029;SDS011;43337;52.070;4.508;2024-03-08T13:39:31;19.23;;;10.43;;
49029;SDS011;43337;52.070;4.508;2024-03-08T13:42:06;21.08;;;10.88;;
49029;SDS011;43337;52.070;4.508;2024-03-08T13:44:34;22.92;;;11.07;;
49029;SDS011;43337;52.070;4.508;2024-03-08T13:47:01;20.90;;;11.57;;
49029;SDS011;43337;52.070;4.508;2024-03-08T13:49:29;23.27;;;11.68;;
49029;SDS011;43337;52.070;4.508;2024-03-08T13:51:54;24.05;;;11.85;;
49029;SDS011;43337;52.070;4.508;2024-03-08T13:54:20;23.55;;;10.73;;
49029;SDS011;43337;52.070;4.508;2024-03-08T13:56:46;20.77;;;9.75;;
49029;SDS011;43337;52.070;4.508;2024-03-08T13:59:12;22.42;;;10.63;;
49029;SDS011;43337;52.070;4.508;2024-03-08T14:01:39;23.05;;;10.07;;
49029;SDS011;43337;52.070;4.508;2024-03-08T14:04:04;24.58;;;11.80;;
49029;SDS011;43337;52.070;4.508;2024-03-08T14:06:30;25.88;;;11.88;;
49029;SDS011;43337;52.070;4.508;2024-03-08T14:08:55;20.38;;;10.15;;
49029;SDS011;43337;52.070;4.508;2024-03-08T14:11:22;22.90;;;10.95;;
49029;SDS011;43337;52.070;4.508;2024-03-08T14:13:49;37.55;;;12.18;;
49029;SDS011;43337;52.070;4.508;2024-03-08T14:16:14;21.98;;;11.05;;
49029;SDS011;43337;52.070;4.508;2024-03-08T14:18:42;25.05;;;12.85;;
49029;SDS011;43337;52.070;4.508;2024-03-08T14:21:08;22.67;;;10.63;;
49029;SDS011;43337;52.070;4.508;2024-03-08T14:23:33;24.23;;;11.57;;
49029;SDS011;43337;52.070;4.508;2024-03-08T14:25:59;23.15;;;11.10;;
49029;SDS011;43337;52.070;4.508;2024-03-08T14:28:25;21.23;;;10.18;;
49029;SDS011;43337;52.070;4.508;2024-03-08T14:30:52;22.25;;;11.60;;
49029;SDS011;43337;52.070;4.508;2024-03-08T14:33:18;25.40;;;11.30;;
49029;SDS011;43337;52.070;4.508;2024-03-08T14:35:43;26.13;;;11.68;;